Humidity-temperature Sensor

Selected Measurement Type: Relative Humidity

 
Relative Humidity [%]     6 entries per hour
Showing data from 6/23/2022 (00:00:00 Z) to 6/16/2022 (00:01:00 Z)
Previous Next [ Day | 3-Days | 7-Days ]
First Last
Prev [ Day | 3-Days | 7-Days ] Next
First Last

Start Time:     :
End Time:     :     
Time (in GMT) :00 :50 :40 :30 :20 :10
Previous Next [ Day | 3-Days | 7-Days ]
First Last
Prev [ Day | 3-Days | 7-Days ] Next
First Last


123 => good data
MM => data is determined as missing
-- => data not received/configured
Back to Top Back to Top
6/23/2022 00:00 to 23:10 -- -- -- -- -- --
6/22/2022 23:00 to 22:10 -- -- -- -- -- --
6/22/2022 22:00 to 21:10 -- -- -- -- -- --
6/22/2022 21:00 to 20:10 -- -- -- -- -- --
6/22/2022 20:00 to 19:10 -- -- -- -- -- --
6/22/2022 19:00 to 18:10 -- -- -- -- -- --
6/22/2022 18:00 to 17:10 -- -- -- -- -- --
6/22/2022 17:00 to 16:10 -- -- -- -- -- --
6/22/2022 16:00 to 15:10 -- -- -- -- -- --
6/22/2022 15:00 to 14:10 -- -- -- -- -- --
6/22/2022 14:00 to 13:10 -- -- -- -- -- --
6/22/2022 13:00 to 12:10 -- -- -- -- -- --
6/22/2022 12:00 to 11:10 -- -- -- -- -- --
6/22/2022 11:00 to 10:10 -- -- -- -- -- --
6/22/2022 10:00 to 9:10 -- -- -- -- -- --
6/22/2022 09:00 to 8:10 -- -- -- -- -- --
6/22/2022 08:00 to 7:10 -- -- -- -- -- --
6/22/2022 07:00 to 6:10 -- -- -- -- -- --
6/22/2022 06:00 to 5:10 -- -- -- -- -- --
6/22/2022 05:00 to 4:10 -- -- -- -- -- --
6/22/2022 04:00 to 3:10 -- -- -- -- -- --
6/22/2022 03:00 to 2:10 -- -- -- -- -- --
6/22/2022 02:00 to 1:10 -- -- -- -- -- --
6/22/2022 01:00 to 0:10 -- -- -- -- -- --
6/22/2022 00:00 to 23:10 -- 96.71 97.78 98.30 97.88 97.32
6/21/2022 23:00 to 22:10 97.10 97.22 97.32 97.34 97.12 96.63
6/21/2022 22:00 to 21:10 96.59 96.75 96.99 96.97 97.05 97.24
6/21/2022 21:00 to 20:10 96.95 96.77 96.97 96.97 96.33 95.49
6/21/2022 20:00 to 19:10 95.63 95.93 95.89 95.73 95.61 95.61
6/21/2022 19:00 to 18:10 96.13 95.93 95.45 94.93 94.49 95.05
6/21/2022 18:00 to 17:10 94.81 94.15 94.47 94.75 94.59 95.29
6/21/2022 17:00 to 16:10 94.97 95.21 95.33 95.35 95.31 95.51
6/21/2022 16:00 to 15:10 95.39 95.15 94.89 94.97 95.35 95.27
6/21/2022 15:00 to 14:10 96.31 96.83 97.30 97.14 96.87 97.01
6/21/2022 14:00 to 13:10 96.81 96.75 96.31 96.39 96.67 96.81
6/21/2022 13:00 to 12:10 96.09 95.93 96.45 96.81 96.53 96.25
6/21/2022 12:00 to 11:10 96.81 96.85 96.01 95.83 95.95 96.13
6/21/2022 11:00 to 10:10 96.57 96.47 96.13 96.75 97.20 96.73
6/21/2022 10:00 to 9:10 96.07 95.83 96.35 96.59 97.12 97.46
6/21/2022 09:00 to 8:10 96.77 96.51 96.21 95.43 95.75 94.65
6/21/2022 08:00 to 7:10 94.55 95.25 95.95 95.93 96.25 95.89
6/21/2022 07:00 to 6:10 96.35 96.87 96.71 96.41 96.45 96.87
6/21/2022 06:00 to 5:10 96.99 97.03 97.07 96.99 97.22 97.46
6/21/2022 05:00 to 4:10 98.02 97.46 97.34 97.78 97.68 97.40
6/21/2022 04:00 to 3:10 97.36 98.10 97.58 97.24 97.07 97.76
6/21/2022 03:00 to 2:10 98.38 98.58 98.50 98.38 97.94 97.84
6/21/2022 02:00 to 1:10 97.86 97.03 96.91 97.32 97.10 96.49
6/21/2022 01:00 to 0:10 96.93 97.14 96.57 95.89 95.79 95.63
6/21/2022 00:00 to 23:10 95.63 95.47 95.47 95.01 95.57 95.93
6/20/2022 23:00 to 22:10 95.37 95.25 95.19 95.17 95.43 95.79
6/20/2022 22:00 to 21:10 95.69 95.99 95.91 96.09 95.99 96.41
6/20/2022 21:00 to 20:10 96.31 96.41 96.45 96.69 96.13 96.33
6/20/2022 20:00 to 19:10 95.87 95.93 95.69 95.45 94.95 94.83
6/20/2022 19:00 to 18:10 94.77 95.37 95.33 94.77 94.53 94.37
6/20/2022 18:00 to 17:10 94.53 94.65 95.35 94.65 94.57 94.03
6/20/2022 17:00 to 16:10 93.87 94.69 94.79 94.39 94.25 93.69
6/20/2022 16:00 to 15:10 94.01 94.67 94.29 93.97 94.19 94.45
6/20/2022 15:00 to 14:10 95.21 96.47 96.21 96.05 95.99 96.63
6/20/2022 14:00 to 13:10 96.03 95.13 94.71 95.75 96.61 96.81
6/20/2022 13:00 to 12:10 96.77 96.99 96.63 96.25 96.37 97.36
6/20/2022 12:00 to 11:10 96.61 96.49 96.31 96.51 96.61 96.09
6/20/2022 11:00 to 10:10 96.33 96.27 96.23 95.87 96.51 96.13
6/20/2022 10:00 to 9:10 95.49 95.81 95.33 95.37 95.65 95.77
6/20/2022 09:00 to 8:10 95.63 95.29 95.19 95.07 94.77 95.19
6/20/2022 08:00 to 7:10 95.21 94.89 95.47 96.31 95.69 95.11
6/20/2022 07:00 to 6:10 96.31 95.53 95.45 95.67 96.33 96.21
6/20/2022 06:00 to 5:10 96.37 96.39 96.77 95.85 96.49 96.29
6/20/2022 05:00 to 4:10 96.33 96.07 96.03 96.29 95.77 97.36
6/20/2022 04:00 to 3:10 96.57 96.33 95.87 96.37 96.31 96.49
6/20/2022 03:00 to 2:10 95.95 96.45 96.53 96.37 96.29 96.13
6/20/2022 02:00 to 1:10 95.45 94.83 94.45 94.23 93.97 92.94
6/20/2022 01:00 to 0:10 93.06 93.24 93.28 93.97 93.97 94.49
6/20/2022 00:00 to 23:10 94.57 93.73 93.77 93.77 94.09 94.45
6/19/2022 23:00 to 22:10 93.89 94.63 94.53 94.27 95.15 94.67
6/19/2022 22:00 to 21:10 94.07 94.27 93.69 93.26 93.54 93.73
6/19/2022 21:00 to 20:10 93.40 94.03 94.15 94.15 93.99 94.57
6/19/2022 20:00 to 19:10 94.41 94.03 93.89 93.97 93.95 93.93
6/19/2022 19:00 to 18:10 93.89 92.82 93.97 93.87 93.97 93.73
6/19/2022 18:00 to 17:10 93.71 93.63 93.34 94.01 94.71 93.69
6/19/2022 17:00 to 16:10 94.17 94.33 94.65 94.51 95.17 94.97
6/19/2022 16:00 to 15:10 94.65 95.45 94.91 95.03 94.69 94.89
6/19/2022 15:00 to 14:10 94.23 95.49 95.89 95.81 95.83 96.27
6/19/2022 14:00 to 13:10 95.91 95.47 95.67 96.01 95.85 96.29
6/19/2022 13:00 to 12:10 96.25 96.35 96.49 96.11 96.31 96.01
6/19/2022 12:00 to 11:10 95.95 96.95 96.59 96.11 95.55 95.45
6/19/2022 11:00 to 10:10 96.05 95.57 95.87 95.27 95.91 95.77
6/19/2022 10:00 to 9:10 96.07 95.83 95.75 96.75 96.61 95.93
6/19/2022 09:00 to 8:10 96.01 96.13 95.95 96.11 96.53 96.71
6/19/2022 08:00 to 7:10 96.51 96.05 95.75 95.91 97.12 96.45
6/19/2022 07:00 to 6:10 95.81 95.15 95.17 96.13 96.13 96.07
6/19/2022 06:00 to 5:10 96.23 96.03 95.81 96.27 96.47 96.69
6/19/2022 05:00 to 4:10 96.83 96.53 95.63 95.71 95.97 96.21
6/19/2022 04:00 to 3:10 95.91 95.93 97.05 96.31 95.95 96.39
6/19/2022 03:00 to 2:10 96.23 96.39 96.03 96.39 95.63 96.25
6/19/2022 02:00 to 1:10 96.45 96.95 96.87 96.45 96.03 96.97
6/19/2022 01:00 to 0:10 96.99 97.46 96.27 95.35 95.53 95.37
6/19/2022 00:00 to 23:10 95.51 96.45 96.05 95.43 95.21 95.57
6/18/2022 23:00 to 22:10 95.79 95.65 95.67 95.73 96.07 97.10
6/18/2022 22:00 to 21:10 97.46 97.20 97.76 98.52 97.96 97.38
6/18/2022 21:00 to 20:10 97.60 97.48 97.58 97.70 97.74 97.52
6/18/2022 20:00 to 19:10 97.88 98.12 98.26 97.94 97.78 97.84
6/18/2022 19:00 to 18:10 98.08 98.10 97.66 97.50 97.90 97.78
6/18/2022 18:00 to 17:10 98.26 97.50 97.46 97.12 96.73 96.81
6/18/2022 17:00 to 16:10 96.73 96.71 96.71 96.61 96.51 96.83
6/18/2022 16:00 to 15:10 96.13 96.23 95.65 95.85 96.13 95.73
6/18/2022 15:00 to 14:10 96.15 96.51 97.42 97.66 97.74 97.80
6/18/2022 14:00 to 13:10 97.72 97.18 97.22 97.44 96.79 96.77
6/18/2022 13:00 to 12:10 96.55 96.73 96.93 97.26 96.67 96.65
6/18/2022 12:00 to 11:10 96.41 95.79 95.39 95.25 94.85 94.83
6/18/2022 11:00 to 10:10 95.37 95.63 95.61 95.35 95.45 95.71
6/18/2022 10:00 to 9:10 95.73 95.49 95.39 94.83 94.79 94.51
6/18/2022 09:00 to 8:10 94.27 94.41 94.21 94.29 94.09 93.34
6/18/2022 08:00 to 7:10 92.96 92.98 93.04 93.36 93.50 94.23
6/18/2022 07:00 to 6:10 94.47 94.35 94.57 94.81 95.25 94.59
6/18/2022 06:00 to 5:10 94.65 95.05 94.87 94.41 94.33 94.19
6/18/2022 05:00 to 4:10 93.69 92.90 93.24 93.12 92.88 92.82
6/18/2022 04:00 to 3:10 92.58 92.38 92.70 91.88 92.28 92.48
6/18/2022 03:00 to 2:10 93.48 92.98 92.48 93.06 93.30 92.52
6/18/2022 02:00 to 1:10 91.34 91.04 91.12 91.74 91.68 91.84
6/18/2022 01:00 to 0:10 91.74 92.34 92.62 92.32 92.34 92.20
6/18/2022 00:00 to 23:10 92.18 91.44 91.08 91.94 92.24 91.72
6/17/2022 23:00 to 22:10 92.64 92.42 91.50 91.86 92.02 91.46
6/17/2022 22:00 to 21:10 91.14 90.66 91.00 91.62 91.36 92.04
6/17/2022 21:00 to 20:10 90.86 91.94 91.52 91.04 91.40 91.00
6/17/2022 20:00 to 19:10 90.82 92.16 91.06 90.10 91.16 91.20
6/17/2022 19:00 to 18:10 90.66 91.02 91.32 91.02 91.00 91.22
6/17/2022 18:00 to 17:10 90.76 90.26 90.22 90.26 91.18 91.38
6/17/2022 17:00 to 16:10 90.22 89.81 90.16 90.14 89.53 88.33
6/17/2022 16:00 to 15:10 89.57 89.41 88.87 90.48 90.10 90.54
6/17/2022 15:00 to 14:10 90.58 91.56 90.80 90.64 91.06 89.89
6/17/2022 14:00 to 13:10 90.96 90.88 90.20 91.02 90.30 89.81
6/17/2022 13:00 to 12:10 90.10 90.20 90.10 89.69 89.95 89.93
6/17/2022 12:00 to 11:10 89.67 89.91 90.38 90.80 90.72 90.94
6/17/2022 11:00 to 10:10 91.86 91.04 90.76 90.56 90.68 90.98
6/17/2022 10:00 to 9:10 90.32 91.08 90.74 90.46 90.80 90.36
6/17/2022 09:00 to 8:10 90.32 89.93 91.60 91.20 90.60 91.14
6/17/2022 08:00 to 7:10 91.08 92.04 91.48 91.16 91.44 91.76
6/17/2022 07:00 to 6:10 91.66 92.04 93.14 92.56 91.98 92.58
6/17/2022 06:00 to 5:10 92.42 91.80 91.20 91.38 91.74 91.62
6/17/2022 05:00 to 4:10 91.62 90.80 92.34 92.80 92.68 92.42
6/17/2022 04:00 to 3:10 91.76 91.06 92.34 91.94 91.56 92.04
6/17/2022 03:00 to 2:10 91.60 91.44 90.82 90.92 90.52 91.38
6/17/2022 02:00 to 1:10 89.95 90.30 89.41 88.07 88.15 88.51
6/17/2022 01:00 to 0:10 88.89 89.73 89.43 91.54 90.76 90.66
6/17/2022 00:00 to 23:10 91.52 91.22 90.05 90.58 89.83 89.59
6/16/2022 23:00 to 22:10 89.75 89.91 90.96 90.60 91.14 90.56
6/16/2022 22:00 to 21:10 90.16 90.54 90.48 90.60 90.44 91.28
6/16/2022 21:00 to 20:10 91.02 91.18 92.06 91.90 91.98 92.00
6/16/2022 20:00 to 19:10 90.74 90.74 90.60 91.26 91.44 89.93
6/16/2022 19:00 to 18:10 92.30 92.74 92.54 91.00 90.88 91.06
6/16/2022 18:00 to 17:10 91.42 92.52 92.68 91.76 91.20 91.20
6/16/2022 17:00 to 16:10 90.68 91.74 91.18 91.10 90.03 89.87
6/16/2022 16:00 to 15:10 89.93 90.22 89.71 89.63 90.14 89.89
6/16/2022 15:00 to 14:10 90.68 90.84 90.54 90.03 91.28 90.18
6/16/2022 14:00 to 13:10 90.28 90.78 90.38 90.88 91.00 90.40
6/16/2022 13:00 to 12:10 90.98 92.12 91.90 91.26 91.58 91.48
6/16/2022 12:00 to 11:10 91.04 90.92 90.44 91.06 91.80 92.46
6/16/2022 11:00 to 10:10 93.20 91.40 91.50 91.92 91.84 91.38
6/16/2022 10:00 to 9:10 92.50 92.22 92.48 93.52 94.19 94.35
6/16/2022 09:00 to 8:10 93.93 92.72 92.62 93.91 93.93 92.42
6/16/2022 08:00 to 7:10 92.42 93.30 93.54 93.22 92.78 91.70
6/16/2022 07:00 to 6:10 91.96 92.40 92.46 93.16 92.54 92.36
6/16/2022 06:00 to 5:10 92.46 92.42 92.02 91.90 91.78 91.64
6/16/2022 05:00 to 4:10 90.78 91.24 91.02 91.60 91.66 91.78
6/16/2022 04:00 to 3:10 91.30 91.08 91.36 90.26 89.65 89.87
6/16/2022 03:00 to 2:10 90.12 90.18 90.12 89.85 89.39 90.28
6/16/2022 02:00 to 1:10 90.10 89.43 88.49 89.19 89.83 89.79
6/16/2022 01:00 to 0:10 89.77 89.51 89.47 89.85 89.11 88.67